createdAt,value
2017-09-21T00:00:14.192Z,0
2017-09-21T00:01:15.166Z,0
2017-09-21T00:02:14.546Z,0
2017-09-21T00:03:14.860Z,0
2017-09-21T00:04:15.209Z,0
2017-09-21T00:05:15.027Z,0
2017-09-21T00:06:14.620Z,0
2017-09-21T00:07:14.944Z,0
2017-09-21T00:08:15.279Z,0
2017-09-21T00:09:14.982Z,0
2017-09-21T00:10:15.020Z,0
2017-09-21T00:11:15.050Z,0
2017-09-21T00:12:15.360Z,0
2017-09-21T00:13:14.748Z,0
2017-09-21T00:14:15.067Z,0
2017-09-21T00:15:14.792Z,0
2017-09-21T00:16:14.811Z,0
2017-09-21T00:17:15.460Z,0
2017-09-21T00:18:15.478Z,0
2017-09-21T00:19:14.838Z,0
2017-09-21T00:20:15.507Z,0
2017-09-21T00:21:15.261Z,0
2017-09-21T00:22:14.910Z,0
2017-09-21T00:23:15.237Z,0
2017-09-21T00:24:15.578Z,0
2017-09-21T00:25:14.962Z,0
2017-09-21T00:26:15.960Z,0
2017-09-21T00:27:15.647Z,0
2017-09-21T00:28:15.336Z,0
2017-09-21T00:29:15.060Z,0
2017-09-21T00:30:15.069Z,0
2017-09-21T00:31:15.059Z,0
2017-09-21T00:32:15.452Z,0
2017-09-21T00:33:15.475Z,0
2017-09-21T00:34:15.765Z,0
2017-09-21T00:35:15.170Z,0
2017-09-21T00:36:16.144Z,0
2017-09-21T00:37:15.927Z,0
2017-09-21T00:38:15.187Z,0
2017-09-21T00:39:15.528Z,0
2017-09-21T00:40:15.915Z,0
2017-09-21T00:41:15.891Z,0
2017-09-21T00:42:15.266Z,0
2017-09-21T00:43:15.621Z,0
2017-09-21T00:44:15.992Z,0
2017-09-21T00:45:15.026Z,0
2017-09-21T00:46:15.985Z,0
2017-09-21T00:47:15.710Z,0
2017-09-21T00:48:15.383Z,0
2017-09-21T00:49:16.047Z,0
2017-09-21T00:50:15.138Z,0
2017-09-21T00:51:15.794Z,0
2017-09-21T00:52:15.571Z,0
2017-09-21T00:53:16.535Z,0
2017-09-21T00:54:15.895Z,0
2017-09-21T00:55:16.373Z,0
2017-09-21T00:56:15.716Z,0
2017-09-21T00:57:15.848Z,0
2017-09-21T00:58:15.867Z,0
2017-09-21T00:59:15.565Z,0
2017-09-21T01:00:15.578Z,0
2017-09-21T01:01:15.939Z,0
2017-09-21T01:02:15.660Z,0
2017-09-21T01:03:16.630Z,0
2017-09-21T01:04:15.670Z,0
2017-09-21T01:05:15.717Z,0
2017-09-21T01:06:15.774Z,0
2017-09-21T01:07:16.728Z,0
2017-09-21T01:08:15.447Z,0
2017-09-21T01:09:16.491Z,0
2017-09-21T01:10:16.103Z,0
2017-09-21T01:11:16.221Z,0
2017-09-21T01:12:16.795Z,0
2017-09-21T01:13:16.162Z,0
2017-09-21T01:14:15.892Z,0
2017-09-21T01:15:15.908Z,0
2017-09-21T01:16:16.887Z,0
2017-09-21T01:17:16.364Z,0
2017-09-21T01:18:16.301Z,0
2017-09-21T01:19:17.046Z,0
2017-09-21T01:20:15.966Z,0
2017-09-21T01:21:16.353Z,0
2017-09-21T01:22:16.031Z,0
2017-09-21T01:23:15.722Z,0
2017-09-21T01:24:16.695Z,0
2017-09-21T01:25:16.832Z,0
2017-09-21T01:26:16.424Z,0
2017-09-21T01:27:16.247Z,0
2017-09-21T01:28:16.890Z,0
2017-09-21T01:29:16.457Z,0
2017-09-21T01:30:16.178Z,0
2017-09-21T01:31:16.829Z,0
2017-09-21T01:32:16.509Z,0
2017-09-21T01:33:16.530Z,0
2017-09-21T01:34:16.257Z,0
2017-09-21T01:35:16.571Z,0
2017-09-21T01:36:16.348Z,0
2017-09-21T01:37:16.613Z,0
2017-09-21T01:38:16.343Z,0
2017-09-21T01:39:16.759Z,0
2017-09-21T01:40:16.340Z,0
2017-09-21T01:41:17.103Z,0
2017-09-21T01:42:17.017Z,0
2017-09-21T01:43:17.368Z,0
2017-09-21T01:44:16.940Z,0
2017-09-21T01:45:16.615Z,0
2017-09-21T01:46:16.936Z,0
2017-09-21T01:47:16.814Z,0
2017-09-21T01:48:17.275Z,0
2017-09-21T01:49:17.147Z,0
2017-09-21T01:50:16.589Z,0
2017-09-21T01:51:16.851Z,0
2017-09-21T01:52:16.227Z,0
2017-09-21T01:53:17.548Z,0
2017-09-21T01:54:17.254Z,0
2017-09-21T01:55:16.702Z,0
2017-09-21T01:56:17.269Z,0
2017-09-21T01:57:16.957Z,0
2017-09-21T01:58:16.992Z,0
2017-09-21T01:59:17.339Z,0
2017-09-21T02:00:17.093Z,0
2017-09-21T02:01:17.389Z,0
2017-09-21T02:02:17.414Z,0
2017-09-21T02:03:16.647Z,0
2017-09-21T02:04:17.409Z,0
2017-09-21T02:05:17.443Z,0
2017-09-21T02:06:17.129Z,0
2017-09-21T02:07:17.127Z,0
2017-09-21T02:08:16.829Z,0
2017-09-21T02:09:17.175Z,0
2017-09-21T02:10:17.197Z,0
2017-09-21T02:11:17.525Z,0
2017-09-21T02:12:16.702Z,0
2017-09-21T02:13:17.255Z,0
2017-09-21T02:14:17.586Z,0
2017-09-21T02:15:16.956Z,0
2017-09-21T02:16:17.312Z,0
2017-09-21T02:17:17.316Z,0
2017-09-21T02:18:17.342Z,0
2017-09-21T02:19:17.352Z,0
2017-09-21T02:20:17.425Z,0
2017-09-21T02:21:17.405Z,0
2017-09-21T02:22:17.405Z,0
2017-09-21T02:23:17.746Z,0
2017-09-21T02:24:17.436Z,0
2017-09-21T02:25:17.165Z,0
2017-09-21T02:26:17.508Z,0
2017-09-21T02:27:17.311Z,0
2017-09-21T02:28:18.168Z,0
2017-09-21T02:29:17.319Z,0
2017-09-21T02:30:17.572Z,0
2017-09-21T02:31:17.584Z,0
2017-09-21T02:32:17.915Z,0
2017-09-21T02:33:17.951Z,0
2017-09-21T02:34:17.336Z,0
2017-09-21T02:35:17.646Z,0
2017-09-21T02:36:18.001Z,0
2017-09-21T02:37:17.681Z,0
2017-09-21T02:38:17.407Z,0
2017-09-21T02:39:17.723Z,0
2017-09-21T02:40:17.503Z,0
2017-09-21T02:41:18.084Z,0
2017-09-21T02:42:18.100Z,0
2017-09-21T02:43:18.255Z,0
2017-09-21T02:44:17.562Z,0
2017-09-21T02:45:18.175Z,0
2017-09-21T02:46:17.844Z,0
2017-09-21T02:47:18.630Z,0
2017-09-21T02:48:17.891Z,0
2017-09-21T02:49:18.353Z,0
2017-09-21T02:50:17.919Z,0
2017-09-21T02:51:18.599Z,0
2017-09-21T02:52:18.305Z,0
2017-09-21T02:53:18.618Z,0
2017-09-21T02:54:18.339Z,0
2017-09-21T02:55:18.675Z,0
2017-09-21T02:56:17.387Z,0
2017-09-21T02:57:17.897Z,0
2017-09-21T02:58:17.567Z,0
2017-09-21T02:59:18.107Z,0
2017-09-21T03:00:17.895Z,0
2017-09-21T03:01:18.133Z,0
2017-09-21T03:02:18.135Z,0
2017-09-21T03:03:18.481Z,0
2017-09-21T03:04:17.928Z,0
2017-09-21T03:05:18.218Z,0
2017-09-21T03:06:17.889Z,0
2017-09-21T03:07:17.644Z,0
2017-09-21T03:08:18.257Z,0
2017-09-21T03:09:17.950Z,0
2017-09-21T03:10:18.282Z,0
2017-09-21T03:11:18.010Z,0
2017-09-21T03:12:18.646Z,0
2017-09-21T03:13:18.025Z,0
2017-09-21T03:14:18.036Z,0
2017-09-21T03:15:18.721Z,0
2017-09-21T03:16:18.713Z,0
2017-09-21T03:17:18.088Z,0
2017-09-21T03:18:18.430Z,0
2017-09-21T03:19:18.124Z,0
2017-09-21T03:20:18.465Z,0
2017-09-21T03:21:18.487Z,0
2017-09-21T03:22:18.857Z,0
2017-09-21T03:23:18.215Z,0
2017-09-21T03:24:18.884Z,0
2017-09-21T03:25:17.921Z,0
2017-09-21T03:26:18.906Z,0
2017-09-21T03:27:18.615Z,0
2017-09-21T03:28:18.614Z,0
2017-09-21T03:29:19.040Z,0
2017-09-21T03:30:18.977Z,0
2017-09-21T03:31:19.314Z,0
2017-09-21T03:32:18.064Z,0
2017-09-21T03:33:18.409Z,0
2017-09-21T03:34:18.729Z,0
2017-09-21T03:35:18.442Z,0
2017-09-21T03:36:19.080Z,0
2017-09-21T03:37:19.092Z,0
2017-09-21T03:38:18.171Z,0
2017-09-21T03:39:18.834Z,0
2017-09-21T03:40:19.481Z,0
2017-09-21T03:41:18.855Z,0
2017-09-21T03:42:19.251Z,0
2017-09-21T03:43:18.900Z,0
2017-09-21T03:44:18.916Z,0
2017-09-21T03:45:18.599Z,0
2017-09-21T03:46:19.175Z,0
2017-09-21T03:47:18.864Z,0
2017-09-21T03:48:19.092Z,0
2017-09-21T03:49:18.381Z,0
2017-09-21T03:50:18.686Z,0
2017-09-21T03:51:19.474Z,0
2017-09-21T03:52:19.501Z,0
2017-09-21T03:53:19.090Z,0
2017-09-21T03:54:19.235Z,0
2017-09-21T03:55:19.108Z,0
2017-09-21T03:56:19.462Z,0
2017-09-21T03:57:19.136Z,0
2017-09-21T03:58:19.154Z,0
2017-09-21T03:59:19.502Z,0
2017-09-21T04:00:19.234Z,0
2017-09-21T04:01:18.923Z,0
2017-09-21T04:02:19.280Z,0
2017-09-21T04:03:19.686Z,0
2017-09-21T04:04:19.965Z,0
2017-09-21T04:05:19.290Z,0
2017-09-21T04:06:19.669Z,0
2017-09-21T04:07:19.652Z,0
2017-09-21T04:08:19.664Z,0
2017-09-21T04:09:19.375Z,0
2017-09-21T04:10:20.071Z,0
2017-09-21T04:11:19.076Z,0
2017-09-21T04:12:19.869Z,0
2017-09-21T04:13:19.108Z,0
2017-09-21T04:14:19.478Z,0
2017-09-21T04:15:19.470Z,0
2017-09-21T04:16:19.198Z,0
2017-09-21T04:17:19.876Z,0
2017-09-21T04:18:19.208Z,0
2017-09-21T04:19:19.859Z,0
2017-09-21T04:20:19.563Z,0
2017-09-21T04:21:19.592Z,0
2017-09-21T04:22:19.058Z,0
2017-09-21T04:23:19.294Z,0
2017-09-21T04:24:19.640Z,0
2017-09-21T04:25:19.984Z,0
2017-09-21T04:26:20.105Z,0
2017-09-21T04:27:19.711Z,0
2017-09-21T04:28:19.788Z,0
2017-09-21T04:29:19.727Z,0
2017-09-21T04:30:20.102Z,0
2017-09-21T04:31:19.756Z,0
2017-09-21T04:32:20.097Z,0
2017-09-21T04:33:20.447Z,0
2017-09-21T04:34:19.811Z,0
2017-09-21T04:35:20.479Z,0
2017-09-21T04:36:19.533Z,0
2017-09-21T04:37:19.546Z,0
2017-09-21T04:38:20.248Z,0
2017-09-21T04:39:20.542Z,0
2017-09-21T04:40:19.934Z,0
2017-09-21T04:41:19.654Z,0
2017-09-21T04:42:19.646Z,0
2017-09-21T04:43:20.300Z,0
2017-09-21T04:44:20.641Z,0
2017-09-21T04:45:19.703Z,0
2017-09-21T04:46:20.025Z,0
2017-09-21T04:47:20.700Z,0
2017-09-21T04:48:19.779Z,0
2017-09-21T04:49:20.761Z,0
2017-09-21T04:50:20.476Z,0
2017-09-21T04:51:19.819Z,0
2017-09-21T04:52:20.462Z,0
2017-09-21T04:53:20.803Z,0
2017-09-21T04:54:20.299Z,0
2017-09-21T04:55:20.190Z,0
2017-09-21T04:56:20.213Z,0
2017-09-21T04:57:20.554Z,0
2017-09-21T04:58:20.943Z,0
2017-09-21T04:59:20.624Z,0
2017-09-21T05:00:19.641Z,0
2017-09-21T05:01:20.624Z,0
2017-09-21T05:02:21.044Z,0
2017-09-21T05:03:20.332Z,0
2017-09-21T05:04:20.686Z,0
2017-09-21T05:05:20.697Z,0
2017-09-21T05:06:20.434Z,0
2017-09-21T05:07:20.735Z,0
2017-09-21T05:08:20.429Z,0
2017-09-21T05:09:20.440Z,0
2017-09-21T05:10:20.473Z,0
2017-09-21T05:11:20.715Z,0
2017-09-21T05:12:20.518Z,0
2017-09-21T05:13:20.517Z,0
2017-09-21T05:14:20.529Z,0
2017-09-21T05:15:20.995Z,0
2017-09-21T05:16:21.007Z,0
2017-09-21T05:17:20.260Z,0
2017-09-21T05:18:21.400Z,0
2017-09-21T05:19:20.304Z,0
2017-09-21T05:20:20.653Z,0
2017-09-21T05:21:20.662Z,0
2017-09-21T05:22:20.366Z,0
2017-09-21T05:23:21.227Z,0
2017-09-21T05:24:20.720Z,0
2017-09-21T05:25:20.733Z,0
2017-09-21T05:26:20.929Z,0
2017-09-21T05:27:20.770Z,0
2017-09-21T05:28:21.232Z,0
2017-09-21T05:29:20.900Z,0
2017-09-21T05:30:20.920Z,0
2017-09-21T05:31:20.940Z,0
2017-09-21T05:32:20.219Z,0
2017-09-21T05:33:21.572Z,0
2017-09-21T05:34:20.925Z,0
2017-09-21T05:35:21.276Z,0
2017-09-21T05:36:20.934Z,0
2017-09-21T05:37:20.952Z,0
2017-09-21T05:38:20.642Z,0
2017-09-21T05:39:21.652Z,0
2017-09-21T05:40:21.464Z,0
2017-09-21T05:41:21.366Z,0
2017-09-21T05:42:21.699Z,0
2017-09-21T05:43:21.066Z,0
2017-09-21T05:44:21.395Z,5
2017-09-21T05:45:21.415Z,5
2017-09-21T05:46:21.434Z,5
2017-09-21T05:47:21.232Z,5
2017-09-21T05:48:21.796Z,5
2017-09-21T05:49:21.361Z,5
2017-09-21T05:50:21.055Z,5
2017-09-21T05:51:21.605Z,5
2017-09-21T05:52:21.083Z,5
2017-09-21T05:53:21.102Z,5
2017-09-21T05:54:21.309Z,5
2017-09-21T05:55:20.970Z,5
2017-09-21T05:56:21.258Z,5
2017-09-21T05:57:21.709Z,5
2017-09-21T05:58:21.490Z,5
2017-09-21T05:59:21.354Z,5
2017-09-21T06:00:21.508Z,5
2017-09-21T06:01:21.718Z,5
2017-09-21T06:02:21.216Z,5
2017-09-21T06:03:22.117Z,5
2017-09-21T06:04:21.555Z,5
2017-09-21T06:05:21.458Z,5
2017-09-21T06:06:21.472Z,5
2017-09-21T06:07:21.571Z,5
2017-09-21T06:08:21.542Z,5
2017-09-21T06:09:21.548Z,5
2017-09-21T06:10:22.189Z,5
2017-09-21T06:11:21.892Z,5
2017-09-21T06:12:21.949Z,5
2017-09-21T06:13:21.393Z,5
2017-09-21T06:14:21.944Z,5
2017-09-21T06:15:21.964Z,5
2017-09-21T06:16:21.986Z,5
2017-09-21T06:17:22.000Z,5
2017-09-21T06:18:22.019Z,5
2017-09-21T06:19:22.043Z,5
2017-09-21T06:20:21.732Z,5
2017-09-21T06:21:22.063Z,5
2017-09-21T06:22:21.774Z,5
2017-09-21T06:23:22.120Z,5
2017-09-21T06:24:21.485Z,5
2017-09-21T06:25:22.140Z,5
2017-09-21T06:26:22.494Z,5
2017-09-21T06:27:21.859Z,10
2017-09-21T06:28:22.201Z,10
2017-09-21T06:29:22.215Z,10
2017-09-21T06:30:21.908Z,10
2017-09-21T06:31:21.619Z,10
2017-09-21T06:32:21.966Z,10
2017-09-21T06:33:22.328Z,10
2017-09-21T06:34:22.311Z,10
2017-09-21T06:35:22.000Z,10
2017-09-21T06:36:22.349Z,10
2017-09-21T06:37:22.355Z,10
2017-09-21T06:38:22.064Z,10
2017-09-21T06:39:22.552Z,10
2017-09-21T06:40:21.768Z,10
2017-09-21T06:41:22.213Z,10
2017-09-21T06:42:22.519Z,10
2017-09-21T06:43:22.485Z,10
2017-09-21T06:44:22.371Z,10
2017-09-21T06:45:22.523Z,10
2017-09-21T06:46:22.526Z,10
2017-09-21T06:47:22.582Z,10
2017-09-21T06:48:22.568Z,10
2017-09-21T06:49:22.579Z,10
2017-09-21T06:50:22.599Z,15
2017-09-21T06:51:22.302Z,15
2017-09-21T06:52:22.486Z,15
2017-09-21T06:53:22.337Z,15
2017-09-21T06:54:22.360Z,15
2017-09-21T06:55:22.710Z,15
2017-09-21T06:56:22.479Z,15
2017-09-21T06:57:22.405Z,15
2017-09-21T06:58:22.196Z,15
2017-09-21T06:59:22.001Z,15
2017-09-21T07:00:22.673Z,15
2017-09-21T07:01:22.479Z,15
2017-09-21T07:02:22.494Z,15
2017-09-21T07:03:22.842Z,15
2017-09-21T07:04:22.420Z,15
2017-09-21T07:05:22.235Z,15
2017-09-21T07:06:22.583Z,15
2017-09-21T07:07:22.599Z,15
2017-09-21T07:08:22.937Z,15
2017-09-21T07:09:22.309Z,15
2017-09-21T07:10:22.973Z,15
2017-09-21T07:11:23.304Z,15
2017-09-21T07:12:22.687Z,15
2017-09-21T07:13:22.705Z,15
2017-09-21T07:14:22.715Z,15
2017-09-21T07:15:23.071Z,15
2017-09-21T07:16:23.101Z,15
2017-09-21T07:17:23.112Z,15
2017-09-21T07:18:23.454Z,15
2017-09-21T07:19:22.489Z,20
2017-09-21T07:20:23.481Z,15
2017-09-21T07:21:23.172Z,15
2017-09-21T07:22:22.875Z,15
2017-09-21T07:23:23.221Z,15
2017-09-21T07:24:22.908Z,20
2017-09-21T07:25:22.606Z,20
2017-09-21T07:26:22.621Z,20
2017-09-21T07:27:22.655Z,20
2017-09-21T07:28:22.694Z,20
2017-09-21T07:29:23.327Z,20
2017-09-21T07:30:23.030Z,20
2017-09-21T07:31:23.043Z,15
2017-09-21T07:32:23.376Z,15
2017-09-21T07:33:22.752Z,15
2017-09-21T07:34:23.420Z,15
2017-09-21T07:35:22.464Z,15
2017-09-21T07:36:22.484Z,15
2017-09-21T07:37:23.478Z,15
2017-09-21T07:38:23.199Z,15
2017-09-21T07:39:22.869Z,20
2017-09-21T07:40:23.848Z,20
2017-09-21T07:41:23.558Z,20
2017-09-21T07:42:23.562Z,20
2017-09-21T07:43:22.934Z,20
2017-09-21T07:44:22.949Z,20
2017-09-21T07:45:22.985Z,20
2017-09-21T07:46:23.634Z,20
2017-09-21T07:47:23.660Z,20
2017-09-21T07:48:23.667Z,20
2017-09-21T07:49:23.372Z,20
2017-09-21T07:50:23.409Z,20
2017-09-21T07:51:24.053Z,25
2017-09-21T07:52:23.443Z,25
2017-09-21T07:53:23.446Z,25
2017-09-21T07:54:22.827Z,25
2017-09-21T07:55:23.498Z,25
2017-09-21T07:56:23.181Z,25
2017-09-21T07:57:23.894Z,25
2017-09-21T07:58:23.537Z,25
2017-09-21T07:59:23.557Z,25
2017-09-21T08:00:23.922Z,25
2017-09-21T08:01:23.274Z,25
2017-09-21T08:02:24.265Z,25
2017-09-21T08:03:24.076Z,25
2017-09-21T08:04:23.010Z,25
2017-09-21T08:05:24.018Z,25
2017-09-21T08:06:23.686Z,25
2017-09-21T08:07:23.388Z,25
2017-09-21T08:08:23.862Z,25
2017-09-21T08:09:23.427Z,25
2017-09-21T08:10:24.184Z,25
2017-09-21T08:11:23.471Z,25
2017-09-21T08:12:23.208Z,25
2017-09-21T08:13:24.473Z,25
2017-09-21T08:14:23.854Z,25
2017-09-21T08:15:24.183Z,30
2017-09-21T08:16:23.904Z,30
2017-09-21T08:17:24.554Z,30
2017-09-21T08:18:23.623Z,30
2017-09-21T08:19:24.295Z,25
2017-09-21T08:20:23.954Z,25
2017-09-21T08:21:24.628Z,30
2017-09-21T08:22:24.009Z,30
2017-09-21T08:23:24.025Z,30
2017-09-21T08:24:24.033Z,30
2017-09-21T08:25:24.061Z,30
2017-09-21T08:26:23.750Z,30
2017-09-21T08:27:24.138Z,30
2017-09-21T08:28:23.789Z,30
2017-09-21T08:29:24.130Z,30
2017-09-21T08:30:24.801Z,30
2017-09-21T08:31:23.849Z,30
2017-09-21T08:32:24.188Z,30
2017-09-21T08:33:24.222Z,35
2017-09-21T08:34:24.875Z,30
2017-09-21T08:35:24.251Z,30
2017-09-21T08:36:23.948Z,30
2017-09-21T08:37:24.665Z,30
2017-09-21T08:38:24.301Z,30
2017-09-21T08:39:24.330Z,30
2017-09-21T08:40:24.052Z,30
2017-09-21T08:41:25.139Z,30
2017-09-21T08:42:24.389Z,30
2017-09-21T08:43:24.734Z,30
2017-09-21T08:44:24.430Z,30
2017-09-21T08:45:24.769Z,30
2017-09-21T08:46:24.880Z,30
2017-09-21T08:47:25.210Z,30
2017-09-21T08:48:24.503Z,35
2017-09-21T08:49:24.528Z,35
2017-09-21T08:50:24.216Z,35
2017-09-21T08:51:24.559Z,35
2017-09-21T08:52:25.325Z,35
2017-09-21T08:53:23.955Z,30
2017-09-21T08:54:24.982Z,30
2017-09-21T08:55:24.635Z,35
2017-09-21T08:56:24.659Z,35
2017-09-21T08:57:24.793Z,35
2017-09-21T08:58:24.387Z,35
2017-09-21T08:59:24.716Z,35
2017-09-21T09:00:24.419Z,30
2017-09-21T09:01:25.180Z,30
2017-09-21T09:02:25.026Z,30
2017-09-21T09:03:24.809Z,25
2017-09-21T09:04:25.262Z,25
2017-09-21T09:05:25.277Z,25
2017-09-21T09:06:25.701Z,25
2017-09-21T09:07:25.291Z,20
2017-09-21T09:08:25.431Z,20
2017-09-21T09:09:24.596Z,20
2017-09-21T09:10:24.936Z,20
2017-09-21T09:11:24.311Z,20
2017-09-21T09:12:24.328Z,20
2017-09-21T09:13:25.149Z,20
2017-09-21T09:14:25.486Z,20
2017-09-21T09:15:24.807Z,25
2017-09-21T09:16:25.605Z,25
2017-09-21T09:17:25.565Z,30
2017-09-21T09:18:24.931Z,30
2017-09-21T09:19:25.146Z,30
2017-09-21T09:20:25.149Z,30
2017-09-21T09:21:25.486Z,30
2017-09-21T09:22:24.859Z,35
2017-09-21T09:23:25.293Z,35
2017-09-21T09:24:25.139Z,30
2017-09-21T09:25:25.432Z,30
2017-09-21T09:26:25.585Z,25
2017-09-21T09:27:25.123Z,25
2017-09-21T09:28:25.627Z,25
2017-09-21T09:29:25.636Z,30
2017-09-21T09:30:25.406Z,30
2017-09-21T09:31:25.454Z,25
2017-09-21T09:32:25.242Z,25
2017-09-21T09:33:25.768Z,25
2017-09-21T09:34:25.143Z,25
2017-09-21T09:35:25.502Z,20
2017-09-21T09:36:25.298Z,20
2017-09-21T09:37:25.804Z,25
2017-09-21T09:38:25.173Z,25
2017-09-21T09:39:26.162Z,30
2017-09-21T09:40:25.857Z,30
2017-09-21T09:41:25.740Z,30
2017-09-21T09:42:25.578Z,30
2017-09-21T09:43:25.796Z,25
2017-09-21T09:44:25.439Z,25
2017-09-21T09:45:25.720Z,30
2017-09-21T09:46:25.342Z,30
2017-09-21T09:47:26.045Z,30
2017-09-21T09:48:25.162Z,35
2017-09-21T09:49:25.405Z,35
2017-09-21T09:50:25.770Z,35
2017-09-21T09:51:25.459Z,35
2017-09-21T09:52:25.464Z,30
2017-09-21T09:53:25.489Z,30
2017-09-21T09:54:26.148Z,35
2017-09-21T09:55:25.853Z,35
2017-09-21T09:56:25.867Z,30
2017-09-21T09:57:26.535Z,35
2017-09-21T09:58:25.907Z,35
2017-09-21T09:59:25.606Z,35
2017-09-21T10:00:25.628Z,35
2017-09-21T10:01:25.651Z,35
2017-09-21T10:02:25.673Z,30
2017-09-21T10:03:26.345Z,30
2017-09-21T10:04:26.056Z,25
2017-09-21T10:05:26.381Z,20
2017-09-21T10:06:26.105Z,20
2017-09-21T10:07:25.454Z,25
2017-09-21T10:08:26.111Z,25
2017-09-21T10:09:25.818Z,30
2017-09-21T10:10:26.161Z,35
2017-09-21T10:11:26.909Z,35
2017-09-21T10:12:26.751Z,30
2017-09-21T10:13:26.615Z,25
2017-09-21T10:14:27.071Z,20
2017-09-21T10:15:26.653Z,20
2017-09-21T10:16:27.013Z,20
2017-09-21T10:17:27.075Z,25
2017-09-21T10:18:26.009Z,25
2017-09-21T10:19:26.995Z,25
2017-09-21T10:20:27.083Z,25
2017-09-21T10:21:26.078Z,20
2017-09-21T10:22:27.046Z,20
2017-09-21T10:23:26.752Z,20
2017-09-21T10:24:27.112Z,20
2017-09-21T10:25:26.465Z,20
2017-09-21T10:26:25.856Z,30
2017-09-21T10:27:26.864Z,30
2017-09-21T10:28:26.864Z,25
2017-09-21T10:29:26.561Z,25
2017-09-21T10:30:26.905Z,20
2017-09-21T10:31:26.596Z,20
2017-09-21T10:32:26.943Z,20
2017-09-21T10:33:26.645Z,20
2017-09-21T10:34:26.341Z,20
2017-09-21T10:35:27.323Z,20
2017-09-21T10:36:26.387Z,20
2017-09-21T10:37:26.721Z,20
2017-09-21T10:38:27.172Z,20
2017-09-21T10:39:27.593Z,20
2017-09-21T10:40:26.816Z,20
2017-09-21T10:41:27.669Z,20
2017-09-21T10:42:27.245Z,20
2017-09-21T10:43:27.293Z,20
2017-09-21T10:44:26.947Z,25
2017-09-21T10:45:27.304Z,20
2017-09-21T10:46:26.779Z,20
2017-09-21T10:47:27.297Z,20
2017-09-21T10:48:26.638Z,25
2017-09-21T10:49:26.337Z,20
2017-09-21T10:50:26.776Z,20
2017-09-21T10:51:27.122Z,25
2017-09-21T10:52:27.047Z,25
2017-09-21T10:53:27.069Z,25
2017-09-21T10:54:27.106Z,30
2017-09-21T10:55:27.117Z,35
2017-09-21T10:56:27.137Z,40
2017-09-21T10:57:26.518Z,40
2017-09-21T10:58:27.176Z,40
2017-09-21T10:59:27.207Z,40
2017-09-21T11:00:27.536Z,35
2017-09-21T11:01:27.560Z,35
2017-09-21T11:02:26.938Z,30
2017-09-21T11:03:27.289Z,25
2017-09-21T11:04:26.996Z,25
2017-09-21T11:05:27.971Z,25
2017-09-21T11:06:27.036Z,25
2017-09-21T11:07:26.730Z,30
2017-09-21T11:08:27.750Z,30
2017-09-21T11:09:28.154Z,30
2017-09-21T11:10:27.122Z,30
2017-09-21T11:11:27.596Z,35
2017-09-21T11:12:27.841Z,40
2017-09-21T11:13:27.270Z,35
2017-09-21T11:14:27.850Z,40
2017-09-21T11:15:27.559Z,45
2017-09-21T11:16:27.246Z,40
2017-09-21T11:17:27.283Z,35
2017-09-21T11:18:27.300Z,25
2017-09-21T11:19:27.638Z,20
2017-09-21T11:20:27.667Z,20
2017-09-21T11:21:27.685Z,20
2017-09-21T11:22:27.392Z,15
2017-09-21T11:23:27.090Z,15
2017-09-21T11:24:27.754Z,15
2017-09-21T11:25:27.784Z,15
2017-09-21T11:26:28.273Z,15
2017-09-21T11:27:27.820Z,15
2017-09-21T11:28:28.165Z,25
2017-09-21T11:29:28.519Z,25
2017-09-21T11:30:28.211Z,25
2017-09-21T11:31:27.905Z,30
2017-09-21T11:32:28.252Z,35
2017-09-21T11:33:27.958Z,35
2017-09-21T11:34:27.977Z,30
2017-09-21T11:35:28.638Z,30
2017-09-21T11:36:28.675Z,30
2017-09-21T11:37:27.807Z,25
2017-09-21T11:38:27.741Z,25
2017-09-21T11:39:27.765Z,25
2017-09-21T11:40:28.114Z,30
2017-09-21T11:41:27.806Z,35
2017-09-21T11:42:28.796Z,35
2017-09-21T11:43:28.175Z,35
2017-09-21T11:44:27.874Z,40
2017-09-21T11:45:28.549Z,40
2017-09-21T11:46:28.238Z,40
2017-09-21T11:47:27.945Z,45
2017-09-21T11:48:27.974Z,45
2017-09-21T11:49:28.154Z,45
2017-09-21T11:50:28.345Z,45
2017-09-21T11:51:28.036Z,45
2017-09-21T11:52:28.707Z,40
2017-09-21T11:53:28.403Z,40
2017-09-21T11:54:28.430Z,40
2017-09-21T11:55:28.125Z,35
2017-09-21T11:56:27.839Z,30
2017-09-21T11:57:28.817Z,20
2017-09-21T11:58:28.601Z,20
2017-09-21T11:59:29.375Z,20
2017-09-21T12:00:29.052Z,20
2017-09-21T12:01:28.276Z,20
2017-09-21T12:02:28.296Z,20
2017-09-21T12:03:28.319Z,20
2017-09-21T12:04:29.098Z,25
2017-09-21T12:05:29.515Z,25
2017-09-21T12:06:29.029Z,25
2017-09-21T12:07:28.733Z,25
2017-09-21T12:08:29.405Z,25
2017-09-21T12:09:29.388Z,25
2017-09-21T12:10:28.965Z,30
2017-09-21T12:11:29.397Z,30
2017-09-21T12:12:28.956Z,30
2017-09-21T12:13:28.951Z,35
2017-09-21T12:14:28.934Z,40
2017-09-21T12:15:29.342Z,40
2017-09-21T12:16:28.793Z,40
2017-09-21T12:17:29.059Z,45
2017-09-21T12:18:29.445Z,45
2017-09-21T12:19:29.135Z,45
2017-09-21T12:20:29.032Z,40
2017-09-21T12:21:28.740Z,40
2017-09-21T12:22:29.629Z,40
2017-09-21T12:23:29.227Z,40
2017-09-21T12:24:29.932Z,40
2017-09-21T12:25:29.477Z,40
2017-09-21T12:26:29.513Z,40
2017-09-21T12:27:29.847Z,40
2017-09-21T12:28:29.233Z,40
2017-09-21T12:29:29.138Z,45
2017-09-21T12:30:29.267Z,45
2017-09-21T12:31:29.654Z,45
2017-09-21T12:32:29.673Z,45
2017-09-21T12:33:29.988Z,40
2017-09-21T12:34:29.696Z,35
2017-09-21T12:35:29.068Z,35
2017-09-21T12:36:29.681Z,40
2017-09-21T12:37:29.555Z,45
2017-09-21T12:38:30.112Z,50
2017-09-21T12:39:29.489Z,50
2017-09-21T12:40:30.023Z,50
2017-09-21T12:41:29.347Z,50
2017-09-21T12:42:30.200Z,50
2017-09-21T12:43:30.103Z,50
2017-09-21T12:44:30.105Z,50
2017-09-21T12:45:29.535Z,50
2017-09-21T12:46:29.773Z,55
2017-09-21T12:47:30.094Z,55
2017-09-21T12:48:30.519Z,50
2017-09-21T12:49:29.819Z,50
2017-09-21T12:50:30.533Z,50
2017-09-21T12:51:30.164Z,50
2017-09-21T12:52:30.362Z,55
2017-09-21T12:53:29.600Z,55
2017-09-21T12:54:30.266Z,50
2017-09-21T12:55:29.556Z,50
2017-09-21T12:56:30.649Z,50
2017-09-21T12:57:30.349Z,50
2017-09-21T12:58:29.987Z,50
2017-09-21T12:59:29.690Z,55
2017-09-21T13:00:30.647Z,55
2017-09-21T13:01:30.054Z,55
2017-09-21T13:02:30.381Z,60
2017-09-21T13:03:30.063Z,60
2017-09-21T13:04:30.418Z,60
2017-09-21T13:05:30.211Z,60
2017-09-21T13:06:30.158Z,50
2017-09-21T13:07:30.170Z,50
2017-09-21T13:08:30.836Z,45
2017-09-21T13:09:30.656Z,45
2017-09-21T13:10:30.237Z,45
2017-09-21T13:11:30.663Z,40
2017-09-21T13:12:30.588Z,40
2017-09-21T13:13:30.630Z,40
2017-09-21T13:14:30.657Z,45
2017-09-21T13:15:30.752Z,45
2017-09-21T13:16:30.726Z,50
2017-09-21T13:17:30.754Z,50
2017-09-21T13:18:31.088Z,50
2017-09-21T13:19:30.791Z,50
2017-09-21T13:20:30.911Z,45
2017-09-21T13:21:30.515Z,40
2017-09-21T13:22:30.886Z,40
2017-09-21T13:23:30.597Z,35
2017-09-21T13:24:30.297Z,30
2017-09-21T13:25:30.554Z,30
2017-09-21T13:26:31.011Z,30
2017-09-21T13:27:30.985Z,30
2017-09-21T13:28:31.032Z,30
2017-09-21T13:29:31.365Z,30
2017-09-21T13:30:31.057Z,30
2017-09-21T13:31:31.161Z,30
2017-09-21T13:32:31.252Z,30
2017-09-21T13:33:30.815Z,30
2017-09-21T13:34:31.186Z,35
2017-09-21T13:35:31.504Z,35
2017-09-21T13:36:30.569Z,35
2017-09-21T13:37:30.648Z,35
2017-09-21T13:38:31.279Z,35
2017-09-21T13:39:30.644Z,35
2017-09-21T13:40:30.696Z,40
2017-09-21T13:41:31.083Z,40
2017-09-21T13:42:30.748Z,40
2017-09-21T13:43:31.073Z,40
2017-09-21T13:44:31.091Z,40
2017-09-21T13:45:31.153Z,40
2017-09-21T13:46:31.780Z,40
2017-09-21T13:47:31.205Z,40
2017-09-21T13:48:31.089Z,35
2017-09-21T13:49:31.209Z,30
2017-09-21T13:50:31.251Z,30
2017-09-21T13:51:30.949Z,30
2017-09-21T13:52:31.621Z,25
2017-09-21T13:53:31.320Z,25
2017-09-21T13:54:31.661Z,25
2017-09-21T13:55:31.371Z,25
2017-09-21T13:56:31.085Z,25
2017-09-21T13:57:31.530Z,30
2017-09-21T13:58:31.136Z,30
2017-09-21T13:59:31.852Z,35
2017-09-21T14:00:32.003Z,40
2017-09-21T14:01:32.096Z,45
2017-09-21T14:02:31.406Z,45
2017-09-21T14:03:31.571Z,45
2017-09-21T14:04:31.682Z,45
2017-09-21T14:05:31.945Z,40
2017-09-21T14:06:31.868Z,35
2017-09-21T14:07:32.072Z,35
2017-09-21T14:08:31.059Z,35
2017-09-21T14:09:31.408Z,35
2017-09-21T14:10:31.937Z,30
2017-09-21T14:11:31.987Z,30
2017-09-21T14:12:31.856Z,30
2017-09-21T14:13:32.161Z,30
2017-09-21T14:14:31.589Z,25
2017-09-21T14:15:31.562Z,25
2017-09-21T14:16:31.910Z,25
2017-09-21T14:17:31.657Z,25
2017-09-21T14:18:32.279Z,25
2017-09-21T14:19:32.428Z,25
2017-09-21T14:20:32.023Z,25
2017-09-21T14:21:31.721Z,20
2017-09-21T14:22:31.450Z,20
2017-09-21T14:23:32.547Z,15
2017-09-21T14:24:32.114Z,15
2017-09-21T14:25:32.141Z,15
2017-09-21T14:26:31.719Z,10
2017-09-21T14:27:32.291Z,10
2017-09-21T14:28:31.792Z,10
2017-09-21T14:29:32.242Z,10